Time;durP1;ratioP1;P1;durP2;ratioP2;P2;SDS_P1;SDS_P2;PMS_P1;PMS_P2;Temp;Humidity;BMP_temperature;BMP_pressure;BME280_temperature;BME280_humidity;BME280_pressure;Samples;Min_cycle;Max_cycle;Signal;HPM_P1;HPM_P2
2024/01/25 00:01:06;;;;;;;19.93;3.40;;;8.50;99.90;;;;;;5060682;28;20188;-71
2024/01/25 00:03:32;;;;;;;16.50;2.80;;;8.40;99.90;;;;;;5057552;28;20186;-72
2024/01/25 00:05:57;;;;;;;9.00;2.67;;;8.30;99.90;;;;;;5062396;28;20206;-72
2024/01/25 00:08:23;;;;;;;10.90;3.10;;;8.20;99.90;;;;;;5064036;28;20276;-72
2024/01/25 00:10:48;;;;;;;8.87;2.47;;;8.30;99.90;;;;;;5060846;28;20674;-72
2024/01/25 00:13:14;;;;;;;9.57;2.70;;;8.20;99.90;;;;;;5053962;28;20185;-72
2024/01/25 00:15:40;;;;;;;18.93;2.67;;;8.40;99.90;;;;;;5061957;28;20196;-72
2024/01/25 00:18:05;;;;;;;9.60;4.07;;;8.20;99.90;;;;;;5065192;28;20208;-72
2024/01/25 00:20:31;;;;;;;7.90;2.50;;;8.20;99.90;;;;;;5053578;28;20626;-71
2024/01/25 00:22:57;;;;;;;22.70;3.77;;;8.20;99.90;;;;;;5064818;28;20186;-72
2024/01/25 00:25:22;;;;;;;16.90;2.67;;;8.20;99.90;;;;;;5059987;28;20411;-71
2024/01/25 00:27:48;;;;;;;14.50;2.53;;;8.20;99.90;;;;;;5057989;28;20201;-72
2024/01/25 00:30:13;;;;;;;11.77;2.50;;;8.20;99.90;;;;;;5062256;28;20178;-72
2024/01/25 00:32:39;;;;;;;22.83;1.77;;;8.20;99.90;;;;;;5065554;28;20229;-72
2024/01/25 00:35:05;;;;;;;9.50;2.60;;;8.10;99.90;;;;;;5059314;28;20188;-72
2024/01/25 00:37:31;;;;;;;11.73;3.67;;;8.10;99.90;;;;;;5057272;28;20193;-71
2024/01/25 00:39:57;;;;;;;7.77;2.13;;;8.10;99.90;;;;;;5067687;28;20419;-72
2024/01/25 00:42:23;;;;;;;9.57;3.10;;;8.20;99.90;;;;;;5068880;28;20680;-71
2024/01/25 00:44:49;;;;;;;22.63;3.07;;;8.20;99.90;;;;;;5059511;28;20216;-71
2024/01/25 00:47:15;;;;;;;19.13;2.70;;;8.20;99.90;;;;;;5057299;28;20904;-72
2024/01/25 00:49:41;;;;;;;11.30;2.33;;;8.20;99.90;;;;;;5062581;28;20178;-71
2024/01/25 00:52:07;;;;;;;13.53;2.40;;;8.20;99.90;;;;;;5064238;28;20625;-71
2024/01/25 00:54:32;;;;;;;6.10;1.60;;;8.20;99.90;;;;;;5059123;28;20201;-72
2024/01/25 00:56:58;;;;;;;23.73;2.20;;;8.20;99.90;;;;;;5069309;28;20426;-71
2024/01/25 00:59:24;;;;;;;6.00;2.30;;;8.20;99.90;;;;;;5050554;28;20605;-71
2024/01/25 01:01:53;;;;;;;14.70;2.70;;;8.20;99.90;;;;;;5052812;28;20566;-72
2024/01/25 01:04:19;;;;;;;11.20;2.50;;;8.20;99.90;;;;;;5061787;28;20186;-72
2024/01/25 01:06:45;;;;;;;10.43;3.50;;;8.20;99.90;;;;;;5064416;28;20419;-72
2024/01/25 01:09:10;;;;;;;23.13;3.70;;;8.20;99.90;;;;;;5055887;28;20577;-71
2024/01/25 01:11:39;;;;;;;24.73;3.20;;;8.40;99.90;;;;;;5054909;28;20448;-72
2024/01/25 01:14:04;;;;;;;8.53;1.93;;;8.20;99.90;;;;;;5059973;28;20664;-72
2024/01/25 01:16:32;;;;;;;6.87;1.40;;;8.20;99.90;;;;;;5057066;28;20428;-72
2024/01/25 01:19:05;;;;;;;3.53;1.57;;;8.30;99.90;;;;;;5070099;28;20210;-72
2024/01/25 01:21:30;;;;;;;9.23;1.87;;;8.30;99.90;;;;;;5060164;28;21281;-72
2024/01/25 01:23:56;;;;;;;7.70;2.03;;;8.30;99.90;;;;;;5063841;28;20420;-72
2024/01/25 01:26:21;;;;;;;11.73;2.73;;;8.20;99.90;;;;;;5058112;28;20221;-72
2024/01/25 01:28:47;;;;;;;8.73;2.20;;;8.20;99.90;;;;;;5063687;28;20228;-72
2024/01/25 01:31:12;;;;;;;5.50;2.20;;;8.10;99.90;;;;;;5067222;28;20192;-72
2024/01/25 01:33:38;;;;;;;5.97;2.20;;;8.10;99.90;;;;;;5063769;28;20189;-72
2024/01/25 01:36:04;;;;;;;15.03;4.13;;;8.10;99.90;;;;;;5060746;28;20526;-72
2024/01/25 01:38:29;;;;;;;9.03;2.63;;;8.10;99.90;;;;;;5064201;28;20263;-72
2024/01/25 01:40:55;;;;;;;11.53;2.50;;;8.20;99.90;;;;;;5070433;28;20185;-72
2024/01/25 01:43:20;;;;;;;3.70;1.40;;;8.20;99.90;;;;;;5064138;28;20177;-72
2024/01/25 01:45:46;;;;;;;18.67;3.70;;;8.10;99.90;;;;;;5067061;28;20189;-72
2024/01/25 01:48:12;;;;;;;18.33;2.80;;;8.10;99.90;;;;;;5062343;28;20619;-72
2024/01/25 01:50:38;;;;;;;10.43;2.20;;;7.90;99.90;;;;;;5060641;28;20185;-72
2024/01/25 01:53:04;;;;;;;25.53;1.93;;;8.00;99.90;;;;;;5061941;28;20434;-72
2024/01/25 01:55:31;;;;;;;16.93;2.10;;;8.10;99.90;;;;;;5059042;28;20548;-72
2024/01/25 01:57:57;;;;;;;12.60;2.20;;;7.90;99.90;;;;;;5061596;28;20944;-72
2024/01/25 02:00:25;;;;;;;12.53;2.90;;;7.90;99.90;;;;;;5059864;28;20424;-72
2024/01/25 02:02:50;;;;;;;8.83;2.30;;;7.80;99.90;;;;;;5060874;28;20456;-72
2024/01/25 02:05:16;;;;;;;9.87;1.93;;;7.70;99.90;;;;;;5058621;28;20856;-72
2024/01/25 02:07:42;;;;;;;8.27;1.67;;;7.70;99.90;;;;;;5066931;28;20196;-72
2024/01/25 02:10:09;;;;;;;13.63;2.07;;;7.90;99.90;;;;;;5059555;28;20229;-72
2024/01/25 02:12:35;;;;;;;23.67;2.17;;;7.60;99.90;;;;;;5073431;28;20419;-72
2024/01/25 02:15:00;;;;;;;22.23;2.67;;;7.60;99.90;;;;;;5059707;28;20517;-72
2024/01/25 02:17:26;;;;;;;9.53;1.80;;;7.80;99.90;;;;;;5061502;28;20978;-72
2024/01/25 02:19:51;;;;;;;10.10;2.57;;;7.80;99.90;;;;;;5066313;28;20223;-72
2024/01/25 02:22:19;;;;;;;18.20;3.30;;;7.70;99.90;;;;;;5064901;28;20181;-72
2024/01/25 02:24:45;;;;;;;9.63;2.50;;;7.70;99.90;;;;;;5059726;28;20246;-72
2024/01/25 02:27:10;;;;;;;13.70;2.30;;;7.80;99.90;;;;;;5061220;28;21040;-72
2024/01/25 02:29:36;;;;;;;14.03;2.83;;;7.70;99.90;;;;;;5066003;28;20194;-72
2024/01/25 02:32:02;;;;;;;4.80;2.10;;;7.60;99.90;;;;;;5064270;28;20188;-72
2024/01/25 02:34:28;;;;;;;13.90;2.87;;;7.60;99.90;;;;;;5058875;28;20633;-72
2024/01/25 02:36:53;;;;;;;14.57;2.93;;;7.60;99.90;;;;;;5072893;28;20184;-72
2024/01/25 02:39:19;;;;;;;9.63;2.27;;;7.60;99.90;;;;;;5054101;28;20206;-72
2024/01/25 02:41:44;;;;;;;15.93;2.37;;;7.50;99.90;;;;;;5053021;28;20182;-72
2024/01/25 02:44:11;;;;;;;13.13;2.50;;;7.50;99.90;;;;;;5052452;28;20185;-72
2024/01/25 02:46:36;;;;;;;6.83;2.07;;;7.50;99.90;;;;;;5052626;28;20212;-72
2024/01/25 02:49:02;;;;;;;17.33;2.07;;;7.50;99.90;;;;;;5054881;28;20419;-71
2024/01/25 02:51:27;;;;;;;5.87;2.50;;;7.50;99.90;;;;;;5052640;28;20196;-71
2024/01/25 02:53:53;;;;;;;11.53;3.07;;;7.80;99.90;;;;;;5054544;28;20745;-72
2024/01/25 02:56:18;;;;;;;13.20;1.83;;;7.50;99.90;;;;;;5072352;28;20660;-72
2024/01/25 02:58:44;;;;;;;12.73;2.50;;;7.50;99.90;;;;;;5072008;28;20201;-72
2024/01/25 03:01:09;;;;;;;12.83;2.60;;;8.00;99.90;;;;;;5063216;28;20181;-72
2024/01/25 03:03:35;;;;;;;27.43;2.47;;;7.90;99.90;;;;;;5065099;28;20515;-71
2024/01/25 03:06:00;;;;;;;20.03;3.47;;;8.00;99.90;;;;;;5060950;28;20192;-72
2024/01/25 03:08:26;;;;;;;9.40;1.70;;;8.00;99.90;;;;;;5070055;28;20662;-72
2024/01/25 03:10:51;;;;;;;21.13;2.80;;;7.90;99.90;;;;;;5062863;28;20271;-72
2024/01/25 03:13:17;;;;;;;21.13;2.50;;;8.30;99.90;;;;;;5065333;28;20634;-72
2024/01/25 03:15:43;;;;;;;16.43;2.20;;;7.50;99.90;;;;;;5060349;28;20181;-72
2024/01/25 03:18:09;;;;;;;6.30;1.83;;;8.20;99.90;;;;;;5057870;28;20256;-72
2024/01/25 03:20:35;;;;;;;10.63;2.40;;;8.00;99.90;;;;;;5063703;28;20425;-72
2024/01/25 03:23:00;;;;;;;9.20;1.53;;;8.20;99.90;;;;;;5065275;28;20691;-72
2024/01/25 03:25:26;;;;;;;7.03;2.00;;;7.60;99.90;;;;;;5060469;28;20177;-72
2024/01/25 03:27:51;;;;;;;9.13;2.07;;;8.70;99.90;;;;;;5058628;28;20195;-72
2024/01/25 03:30:17;;;;;;;11.90;1.87;;;8.40;99.90;;;;;;5063543;28;20693;-72
2024/01/25 03:32:42;;;;;;;8.50;2.03;;;8.20;99.90;;;;;;5064477;28;20189;-72
2024/01/25 03:35:08;;;;;;;2.87;1.53;;;7.90;99.90;;;;;;5060484;28;20310;-72
2024/01/25 03:37:33;;;;;;;13.13;2.40;;;7.50;99.90;;;;;;5058198;28;20213;-72
2024/01/25 03:39:59;;;;;;;8.00;2.03;;;8.80;99.90;;;;;;5059698;28;20696;-72
2024/01/25 03:42:24;;;;;;;6.83;1.60;;;8.00;99.90;;;;;;5062442;28;20182;-72
2024/01/25 03:44:50;;;;;;;4.17;1.73;;;8.80;99.90;;;;;;5058480;28;20181;-72
2024/01/25 03:47:15;;;;;;;8.50;1.90;;;9.60;99.90;;;;;;5057962;28;20654;-72
2024/01/25 03:49:41;;;;;;;7.00;1.30;;;7.50;99.90;;;;;;5063455;28;20539;-72
2024/01/25 03:52:07;;;;;;;20.73;1.97;;;8.40;99.90;;;;;;5064875;28;20646;-72
2024/01/25 03:54:32;;;;;;;5.03;2.27;;;7.40;99.90;;;;;;5059187;28;20196;-72
2024/01/25 03:56:58;;;;;;;3.83;1.33;;;7.40;99.90;;;;;;5057977;28;20200;-70
2024/01/25 03:59:23;;;;;;;6.10;1.50;;;8.50;99.90;;;;;;5063799;28;20240;-70
2024/01/25 04:01:49;;;;;;;16.20;1.80;;;7.50;99.90;;;;;;5064766;28;20196;-70
2024/01/25 04:04:15;;;;;;;14.33;2.30;;;7.60;99.90;;;;;;5057869;28;20264;-70
2024/01/25 04:06:42;;;;;;;4.60;1.50;;;8.90;99.90;;;;;;5058218;28;20626;-70
2024/01/25 04:09:08;;;;;;;10.97;2.53;;;8.00;99.90;;;;;;5064082;28;20495;-70
2024/01/25 04:11:34;;;;;;;8.70;1.70;;;8.60;99.90;;;;;;5064764;28;20702;-70
2024/01/25 04:13:59;;;;;;;7.83;2.53;;;8.40;99.90;;;;;;5058330;28;20430;-70
2024/01/25 04:16:26;;;;;;;8.20;2.40;;;7.30;99.90;;;;;;5057540;28;20194;-71
2024/01/25 04:18:51;;;;;;;26.70;2.83;;;7.40;99.90;;;;;;5063493;28;20206;-71
2024/01/25 04:21:17;;;;;;;6.00;2.47;;;9.80;99.90;;;;;;5052278;28;20435;-71
2024/01/25 04:23:42;;;;;;;8.27;2.97;;;8.50;99.90;;;;;;5057889;28;20823;-71
2024/01/25 04:26:08;;;;;;;7.93;1.60;;;9.10;99.90;;;;;;5071357;28;20738;-71
2024/01/25 04:28:33;;;;;;;17.80;1.93;;;8.50;99.90;;;;;;5051376;28;20186;-71
2024/01/25 04:30:59;;;;;;;9.17;2.17;;;8.40;99.90;;;;;;5051135;28;20221;-71
2024/01/25 04:33:24;;;;;;;22.23;1.70;;;9.60;99.90;;;;;;5063698;28;20181;-71
2024/01/25 04:35:50;;;;;;;7.67;1.67;;;9.00;99.90;;;;;;5051083;28;20228;-71
2024/01/25 04:38:15;;;;;;;7.50;1.57;;;8.40;99.90;;;;;;5064556;28;20210;-71
2024/01/25 04:40:40;;;;;;;20.87;2.97;;;8.50;99.90;;;;;;5051262;28;20185;-71
2024/01/25 04:43:06;;;;;;;16.30;2.37;;;8.20;99.90;;;;;;5051040;28;20185;-71
2024/01/25 04:45:32;;;;;;;6.37;1.23;;;7.40;99.90;;;;;;5050940;28;20563;-71
2024/01/25 04:47:57;;;;;;;9.03;2.73;;;8.00;99.90;;;;;;5050307;28;20174;-72
2024/01/25 04:50:23;;;;;;;4.67;1.93;;;7.30;99.90;;;;;;5050945;28;20189;-72
2024/01/25 04:52:48;;;;;;;3.27;1.50;;;8.40;99.90;;;;;;5054774;28;20181;-71
2024/01/25 04:55:14;;;;;;;7.90;2.13;;;7.80;99.90;;;;;;5065037;28;20181;-71
2024/01/25 04:57:39;;;;;;;14.87;1.90;;;7.30;99.90;;;;;;5061284;28;20217;-71
2024/01/25 05:00:06;;;;;;;12.20;1.80;;;7.80;99.90;;;;;;5074600;28;20657;-71
2024/01/25 05:02:32;;;;;;;11.20;1.47;;;7.20;99.90;;;;;;5068379;28;20170;-71
2024/01/25 05:04:57;;;;;;;13.43;3.50;;;7.50;99.90;;;;;;5054476;28;20919;-71
2024/01/25 05:07:22;;;;;;;14.83;3.90;;;7.80;99.90;;;;;;5060351;28;20195;-71
2024/01/25 05:09:48;;;;;;;4.57;2.27;;;7.30;99.90;;;;;;5072355;28;20239;-71
2024/01/25 05:12:13;;;;;;;3.93;2.30;;;7.10;99.90;;;;;;5074742;28;20276;-71
2024/01/25 05:14:39;;;;;;;7.13;2.83;;;7.50;99.90;;;;;;5062304;28;20668;-71
2024/01/25 05:17:05;;;;;;;12.40;2.43;;;7.90;99.90;;;;;;5059716;28;20189;-71
2024/01/25 05:19:32;;;;;;;11.43;3.27;;;8.10;99.90;;;;;;5061955;28;20232;-71
2024/01/25 05:21:57;;;;;;;5.87;2.17;;;7.80;99.90;;;;;;5060216;28;20423;-72
2024/01/25 05:24:23;;;;;;;6.03;2.70;;;7.10;99.90;;;;;;5074215;28;20185;-71
2024/01/25 05:26:48;;;;;;;14.43;2.87;;;7.10;99.90;;;;;;5070510;28;20193;-71
2024/01/25 05:29:14;;;;;;;12.83;3.73;;;8.30;99.90;;;;;;5054405;28;20198;-71
2024/01/25 05:31:39;;;;;;;17.13;3.67;;;7.60;99.90;;;;;;5071710;28;20189;-71
2024/01/25 05:34:05;;;;;;;13.20;3.10;;;7.00;99.90;;;;;;5063009;28;20553;-71
2024/01/25 05:36:30;;;;;;;9.43;3.13;;;7.70;99.90;;;;;;5071104;28;20181;-71
2024/01/25 05:38:55;;;;;;;9.77;2.53;;;8.20;99.90;;;;;;5063918;28;20681;-70
2024/01/25 05:41:21;;;;;;;9.07;2.40;;;7.00;99.90;;;;;;5054116;28;20626;-71
2024/01/25 05:43:46;;;;;;;6.60;2.20;;;7.30;99.90;;;;;;5054167;28;20330;-71
2024/01/25 05:46:12;;;;;;;5.03;2.20;;;7.80;99.90;;;;;;5071028;28;20272;-71
2024/01/25 05:48:37;;;;;;;12.90;1.90;;;7.80;99.90;;;;;;5062663;28;20228;-71
2024/01/25 05:51:03;;;;;;;15.07;2.00;;;7.10;99.90;;;;;;5053943;28;20182;-71
2024/01/25 05:53:28;;;;;;;7.13;3.40;;;6.70;99.90;;;;;;5065642;28;20616;-71
2024/01/25 05:55:54;;;;;;;6.27;0.93;;;6.60;99.90;;;;;;5059988;28;20184;-72
2024/01/25 05:58:19;;;;;;;5.57;2.17;;;6.60;99.90;;;;;;5072077;28;20240;-72
2024/01/25 06:00:45;;;;;;;6.70;1.70;;;6.80;99.90;;;;;;5053714;28;20186;-72
2024/01/25 06:03:10;;;;;;;7.30;1.83;;;7.40;99.90;;;;;;5064529;28;20627;-71
2024/01/25 06:05:36;;;;;;;8.20;1.57;;;7.40;99.90;;;;;;5068830;28;20182;-71
2024/01/25 06:08:01;;;;;;;4.17;1.53;;;6.60;99.90;;;;;;5063786;28;20637;-72
2024/01/25 06:10:27;;;;;;;7.03;1.67;;;6.60;99.90;;;;;;5055049;28;20244;-72
2024/01/25 06:12:52;;;;;;;9.53;2.30;;;7.90;99.90;;;;;;5064833;28;20176;-71
2024/01/25 06:15:18;;;;;;;6.10;1.53;;;6.50;99.90;;;;;;5073394;28;20201;-72
2024/01/25 06:17:43;;;;;;;4.63;1.47;;;7.60;99.90;;;;;;5061474;28;20185;-70
2024/01/25 06:20:10;;;;;;;8.40;2.17;;;8.10;99.90;;;;;;5057583;28;20292;-72
2024/01/25 06:22:36;;;;;;;13.33;1.60;;;6.60;99.90;;;;;;5062442;28;20201;-71
2024/01/25 06:25:03;;;;;;;17.23;3.60;;;7.20;99.90;;;;;;5066828;28;20904;-71
2024/01/25 06:27:29;;;;;;;15.77;4.20;;;6.50;99.90;;;;;;5064852;28;20177;-71
2024/01/25 06:29:54;;;;;;;13.57;3.40;;;8.40;99.90;;;;;;5062916;28;20507;-72
2024/01/25 06:32:20;;;;;;;4.47;1.77;;;8.10;99.90;;;;;;5061452;28;20182;-72
2024/01/25 06:34:45;;;;;;;20.73;2.20;;;7.60;99.90;;;;;;5057294;28;20562;-71
2024/01/25 06:37:15;;;;;;;17.73;3.27;;;6.20;99.90;;;;;;5061943;28;20192;-72
2024/01/25 06:39:40;;;;;;;16.40;2.97;;;8.00;99.90;;;;;;5066765;28;20240;-71
2024/01/25 06:42:06;;;;;;;10.43;2.47;;;7.30;99.90;;;;;;5061075;28;20860;-72
2024/01/25 06:44:32;;;;;;;15.13;2.27;;;6.10;99.90;;;;;;5053037;28;20576;-71
2024/01/25 06:46:57;;;;;;;10.77;3.97;;;7.90;99.90;;;;;;5052899;28;20416;-72
2024/01/25 06:49:23;;;;;;;9.23;3.93;;;6.20;99.90;;;;;;5064929;28;20268;-73
2024/01/25 06:51:48;;;;;;;18.13;4.20;;;7.30;99.90;;;;;;5064424;28;20189;-70
2024/01/25 06:54:14;;;;;;;14.73;2.83;;;7.80;99.90;;;;;;5059397;28;20277;-70
2024/01/25 06:56:39;;;;;;;9.67;2.60;;;7.10;99.90;;;;;;5061262;28;20178;-71
2024/01/25 06:59:05;;;;;;;11.90;2.80;;;7.00;99.90;;;;;;5057365;28;20197;-71
2024/01/25 07:01:30;;;;;;;7.27;1.90;;;7.90;99.90;;;;;;5072359;28;20701;-71
2024/01/25 07:03:56;;;;;;;9.80;2.60;;;6.90;99.90;;;;;;5058459;28;20173;-71
2024/01/25 07:06:21;;;;;;;16.63;2.30;;;6.80;99.90;;;;;;5072497;28;20221;-71
2024/01/25 07:08:47;;;;;;;10.27;2.97;;;6.90;99.90;;;;;;5069426;28;20269;-72
2024/01/25 07:11:12;;;;;;;9.73;2.50;;;6.50;99.90;;;;;;5060693;28;20289;-72
2024/01/25 07:13:38;;;;;;;8.47;2.80;;;5.50;99.90;;;;;;5066084;28;20653;-71
2024/01/25 07:16:04;;;;;;;33.07;4.00;;;5.90;99.90;;;;;;5051691;28;20265;-73
2024/01/25 07:18:30;;;;;;;8.70;2.93;;;5.50;99.90;;;;;;5049412;28;20815;-73
2024/01/25 07:20:55;;;;;;;19.57;2.60;;;6.30;99.90;;;;;;5051142;28;20231;-73
2024/01/25 07:23:21;;;;;;;4.03;2.00;;;5.40;99.90;;;;;;5051895;28;20633;-73
2024/01/25 07:25:47;;;;;;;18.97;3.70;;;7.10;99.90;;;;;;5063872;28;20189;-73
2024/01/25 07:28:12;;;;;;;12.43;3.07;;;6.70;99.90;;;;;;5067925;28;20485;-73
2024/01/25 07:30:38;;;;;;;5.87;2.43;;;7.00;99.90;;;;;;5064251;28;20188;-73
2024/01/25 07:33:03;;;;;;;11.50;3.10;;;7.10;99.90;;;;;;5059751;28;20214;-72
2024/01/25 07:35:29;;;;;;;10.27;2.87;;;5.60;99.90;;;;;;5062908;28;20188;-73
2024/01/25 07:37:54;;;;;;;15.23;3.60;;;5.60;99.90;;;;;;5057635;28;20189;-73
2024/01/25 07:40:20;;;;;;;14.30;3.50;;;7.00;99.90;;;;;;5059285;28;20186;-73
2024/01/25 07:42:47;;;;;;;16.63;4.57;;;7.70;99.90;;;;;;5066498;28;20186;-73
2024/01/25 07:45:13;;;;;;;5.00;2.70;;;7.50;99.90;;;;;;5056541;28;20253;-73
2024/01/25 07:47:41;;;;;;;19.20;2.87;;;5.70;99.90;;;;;;5052517;28;20416;-73
2024/01/25 07:50:06;;;;;;;8.27;2.10;;;7.10;99.90;;;;;;5063517;28;20419;-72
2024/01/25 07:52:32;;;;;;;20.80;2.33;;;5.80;99.90;;;;;;5072528;28;20431;-73
2024/01/25 07:54:57;;;;;;;7.20;2.50;;;6.20;99.90;;;;;;5072437;28;20580;-74
2024/01/25 07:57:23;;;;;;;11.03;2.13;;;7.40;99.90;;;;;;5067219;28;20208;-72
2024/01/25 07:59:49;;;;;;;9.20;2.70;;;7.90;99.90;;;;;;5062523;28;20213;-72
2024/01/25 08:02:16;;;;;;;13.67;2.50;;;5.90;99.90;;;;;;5057806;28;20415;-72
2024/01/25 08:04:41;;;;;;;4.77;1.77;;;7.10;99.90;;;;;;5059680;28;20231;-73
2024/01/25 08:07:07;;;;;;;5.43;1.80;;;6.90;99.90;;;;;;5064773;28;20916;-73
2024/01/25 08:09:32;;;;;;;3.90;1.10;;;7.00;99.90;;;;;;5054300;28;20233;-73
2024/01/25 08:11:57;;;;;;;5.57;1.63;;;7.20;99.90;;;;;;5065048;28;20224;-73
2024/01/25 08:14:23;;;;;;;11.30;2.10;;;7.40;99.90;;;;;;5062843;28;20579;-73
2024/01/25 08:16:49;;;;;;;7.07;1.57;;;7.30;99.90;;;;;;5057906;28;20307;-73
2024/01/25 08:19:14;;;;;;;9.93;2.20;;;7.80;99.90;;;;;;5059805;28;20210;-73
2024/01/25 08:21:39;;;;;;;13.23;1.97;;;7.30;99.90;;;;;;5064746;28;20610;-72
2024/01/25 08:24:05;;;;;;;9.13;2.23;;;7.40;99.90;;;;;;5062471;28;20266;-72
2024/01/25 08:26:30;;;;;;;7.60;1.73;;;6.00;99.90;;;;;;5067053;28;20189;-73
2024/01/25 08:28:56;;;;;;;15.70;3.17;;;7.40;99.90;;;;;;5055422;28;20198;-73
2024/01/25 08:31:21;;;;;;;5.73;1.90;;;7.90;99.90;;;;;;5067463;28;20197;-73
2024/01/25 08:33:47;;;;;;;15.43;2.40;;;7.70;99.90;;;;;;5065299;28;20526;-73
2024/01/25 08:36:19;;;;;;;6.60;1.93;;;7.90;99.90;;;;;;5057929;28;20192;-73
2024/01/25 08:38:45;;;;;;;7.63;1.83;;;6.60;99.90;;;;;;5064733;28;20661;-73
2024/01/25 08:41:11;;;;;;;7.77;2.50;;;8.60;99.90;;;;;;5068912;28;20411;-72
2024/01/25 08:43:37;;;;;;;8.50;2.57;;;8.30;99.90;;;;;;5055176;28;20170;-73
2024/01/25 08:46:03;;;;;;;5.50;2.70;;;8.40;99.90;;;;;;5068456;28;20815;-73
2024/01/25 08:48:28;;;;;;;19.23;3.13;;;7.40;99.90;;;;;;5065532;28;20635;-73
2024/01/25 08:50:54;;;;;;;12.43;2.10;;;7.90;99.90;;;;;;5057002;28;20523;-73
2024/01/25 08:53:27;;;;;;;6.43;1.80;;;8.70;99.90;;;;;;5065714;28;20181;-73
2024/01/25 08:55:53;;;;;;;10.13;2.17;;;9.20;99.90;;;;;;5061414;28;20185;-73
2024/01/25 08:58:19;;;;;;;8.00;2.50;;;9.50;99.90;;;;;;5063687;28;21062;-73
2024/01/25 09:00:45;;;;;;;4.67;1.47;;;8.90;99.90;;;;;;5068248;28;20901;-73
2024/01/25 09:03:10;;;;;;;10.60;2.77;;;9.00;99.90;;;;;;5065712;28;20427;-73
2024/01/25 09:05:40;;;;;;;4.60;2.10;;;8.90;99.90;;;;;;5069604;28;20213;-73
2024/01/25 09:08:06;;;;;;;16.23;3.57;;;8.20;99.90;;;;;;5065493;28;20177;-73
2024/01/25 09:10:31;;;;;;;36.63;2.33;;;8.20;99.90;;;;;;5050132;28;20470;-72
2024/01/25 09:12:57;;;;;;;6.17;2.30;;;9.30;99.90;;;;;;5065874;28;20185;-73
2024/01/25 09:15:22;;;;;;;3.80;1.43;;;9.00;99.90;;;;;;5060144;28;20454;-73
2024/01/25 09:17:47;;;;;;;9.17;2.57;;;9.40;99.90;;;;;;5060914;28;20544;-73
2024/01/25 09:20:13;;;;;;;24.27;2.63;;;8.40;99.90;;;;;;5071461;28;20261;-73
2024/01/25 09:22:39;;;;;;;11.93;2.40;;;8.50;99.90;;;;;;5072713;28;20189;-72
2024/01/25 09:25:05;;;;;;;10.70;2.00;;;9.50;99.90;;;;;;5059793;28;20181;-73
2024/01/25 09:27:30;;;;;;;13.67;2.33;;;8.40;99.90;;;;;;5061143;28;20257;-73
2024/01/25 09:29:56;;;;;;;10.90;2.67;;;9.30;99.90;;;;;;5060230;28;20443;-73
2024/01/25 09:32:21;;;;;;;4.40;2.00;;;9.30;99.90;;;;;;5061461;28;20231;-73
2024/01/25 09:34:47;;;;;;;14.03;2.27;;;8.60;99.90;;;;;;5065724;28;20876;-73
2024/01/25 09:37:14;;;;;;;18.17;2.50;;;9.80;99.90;;;;;;5063920;28;20181;-73
2024/01/25 09:39:40;;;;;;;13.83;3.07;;;8.70;99.90;;;;;;5059048;28;20209;-73
2024/01/25 09:42:07;;;;;;;8.20;2.33;;;10.50;99.90;;;;;;5061134;28;20423;-73
2024/01/25 09:44:32;;;;;;;8.87;1.77;;;9.00;99.90;;;;;;5057112;28;20185;-73
2024/01/25 09:46:58;;;;;;;10.20;2.83;;;9.10;99.90;;;;;;5061347;28;20416;-73
2024/01/25 09:49:24;;;;;;;9.20;1.70;;;9.80;99.90;;;;;;5064559;28;20182;-73
2024/01/25 09:51:51;;;;;;;11.73;1.70;;;9.50;99.90;;;;;;5057259;28;20190;-72
2024/01/25 09:54:16;;;;;;;5.63;1.83;;;9.10;99.90;;;;;;5065845;28;20178;-73
2024/01/25 09:56:42;;;;;;;15.77;2.47;;;9.30;99.90;;;;;;5064247;28;20456;-72
2024/01/25 09:59:08;;;;;;;5.73;2.00;;;9.20;99.90;;;;;;5059150;28;20704;-73
2024/01/25 10:01:34;;;;;;;4.57;1.97;;;9.50;99.90;;;;;;5063772;28;20234;-73
2024/01/25 10:04:00;;;;;;;14.33;2.17;;;9.70;99.90;;;;;;5067539;28;20895;-72
2024/01/25 10:06:26;;;;;;;20.40;2.77;;;10.00;99.90;;;;;;5060072;28;20708;-72
2024/01/25 10:08:52;;;;;;;15.10;1.60;;;9.10;99.90;;;;;;5067972;28;20543;-72
2024/01/25 10:11:18;;;;;;;6.30;2.30;;;9.00;99.90;;;;;;5059912;28;20665;-72
2024/01/25 10:13:45;;;;;;;11.27;2.43;;;9.00;99.90;;;;;;5065009;28;20416;-73
2024/01/25 10:16:12;;;;;;;7.63;3.07;;;9.80;99.90;;;;;;5064879;28;20184;-73
2024/01/25 10:18:39;;;;;;;11.40;2.53;;;9.30;99.90;;;;;;5064857;28;20822;-73
2024/01/25 10:21:05;;;;;;;15.83;4.20;;;9.10;99.90;;;;;;5065267;28;20427;-73
2024/01/25 10:23:32;;;;;;;9.00;1.87;;;8.80;99.90;;;;;;5058740;28;20911;-73
2024/01/25 10:25:58;;;;;;;11.60;2.27;;;9.70;99.90;;;;;;5059321;28;20503;-73
2024/01/25 10:28:25;;;;;;;32.90;3.10;;;9.10;99.90;;;;;;5064794;28;20518;-73
2024/01/25 10:30:50;;;;;;;1.90;1.30;;;8.90;99.90;;;;;;5051794;28;20182;-73
2024/01/25 10:33:17;;;;;;;2.33;1.10;;;9.80;99.90;;;;;;5067931;28;20942;-73
2024/01/25 10:35:49;;;;;;;6.90;1.60;;;8.70;99.90;;;;;;5065314;28;20638;-73
2024/01/25 10:38:18;;;;;;;6.00;2.80;;;8.70;99.90;;;;;;5059239;28;20426;-72
2024/01/25 10:40:45;;;;;;;8.60;1.67;;;8.70;99.90;;;;;;5066698;28;20419;-73
2024/01/25 10:43:11;;;;;;;8.43;2.47;;;9.70;99.90;;;;;;5051700;28;20439;-73
2024/01/25 10:45:37;;;;;;;14.03;1.70;;;8.90;99.90;;;;;;5064940;28;20449;-73
2024/01/25 10:48:02;;;;;;;6.57;1.60;;;9.10;99.90;;;;;;5050847;28;20198;-73
2024/01/25 10:50:28;;;;;;;7.33;2.07;;;9.00;99.90;;;;;;5051595;28;20295;-73
2024/01/25 10:52:54;;;;;;;9.90;2.63;;;9.10;99.90;;;;;;5063793;28;20173;-73
2024/01/25 10:55:20;;;;;;;6.17;1.90;;;9.60;99.90;;;;;;5051372;28;20190;-73
2024/01/25 10:57:46;;;;;;;7.70;1.57;;;9.10;99.90;;;;;;5064741;28;20591;-73
2024/01/25 11:00:17;;;;;;;3.67;2.07;;;9.40;99.90;;;;;;5064228;28;20469;-73
2024/01/25 11:02:46;;;;;;;12.53;2.70;;;9.00;99.90;;;;;;5058043;28;20291;-73
2024/01/25 11:05:17;;;;;;;4.70;2.20;;;9.30;99.90;;;;;;5065012;28;20415;-73
2024/01/25 11:07:46;;;;;;;5.63;1.60;;;9.20;99.90;;;;;;5060183;28;20430;-73
2024/01/25 11:10:24;;;;;;;6.20;1.70;;;9.20;99.90;;;;;;5056949;28;20513;-73
2024/01/25 11:13:13;;;;;;;4.93;1.43;;;9.30;99.90;;;;;;5059565;28;20515;-73
2024/01/25 11:15:39;;;;;;;10.00;1.93;;;9.70;99.90;;;;;;5059370;28;20838;-73
2024/01/25 11:18:08;;;;;;;10.43;1.67;;;9.80;99.90;;;;;;5056716;28;20523;-73
2024/01/25 11:20:35;;;;;;;8.50;2.03;;;10.00;99.90;;;;;;5061990;28;20227;-73
2024/01/25 11:23:04;;;;;;;8.60;2.10;;;9.70;99.90;;;;;;5064248;28;20510;-74
2024/01/25 11:25:31;;;;;;;3.70;2.07;;;10.60;99.90;;;;;;5059816;28;20457;-73
2024/01/25 11:27:58;;;;;;;6.90;1.77;;;9.60;99.90;;;;;;5057605;28;20425;-73
2024/01/25 11:30:25;;;;;;;11.03;2.63;;;9.70;99.90;;;;;;5053336;28;20979;-73
2024/01/25 11:32:50;;;;;;;6.70;1.97;;;10.50;99.90;;;;;;5065200;28;20435;-73
2024/01/25 11:35:16;;;;;;;5.80;1.90;;;10.00;99.90;;;;;;5056918;28;20424;-73
2024/01/25 11:37:51;;;;;;;7.33;1.40;;;9.70;99.90;;;;;;5072929;28;20544;-73
2024/01/25 11:40:18;;;;;;;12.73;2.07;;;9.40;99.90;;;;;;5067150;28;20466;-73
2024/01/25 11:42:47;;;;;;;9.40;1.90;;;9.40;99.90;;;;;;5067040;28;20462;-73
2024/01/25 11:45:14;;;;;;;15.17;1.47;;;9.40;99.90;;;;;;5065751;28;20825;-73
2024/01/25 11:47:40;;;;;;;5.17;1.70;;;9.40;99.90;;;;;;5056560;28;20880;-71
2024/01/25 11:50:07;;;;;;;12.00;1.73;;;10.20;99.90;;;;;;5060116;28;20423;-71
2024/01/25 11:52:33;;;;;;;6.03;1.63;;;9.40;99.90;;;;;;5054486;28;20621;-71
2024/01/25 11:55:02;;;;;;;5.93;1.90;;;9.90;99.90;;;;;;5069307;28;20566;-71
2024/01/25 11:57:30;;;;;;;10.80;2.10;;;9.20;99.90;;;;;;5056735;28;20185;-72
2024/01/25 11:59:56;;;;;;;8.03;2.00;;;9.10;99.90;;;;;;5062600;28;20456;-74
2024/01/25 12:02:22;;;;;;;6.43;2.00;;;9.60;99.90;;;;;;5050271;28;20939;-73
2024/01/25 12:04:49;;;;;;;14.00;2.43;;;10.80;99.90;;;;;;5050013;28;20526;-73
2024/01/25 12:07:15;;;;;;;14.13;2.20;;;9.20;99.90;;;;;;5054322;28;20204;-74
2024/01/25 12:09:41;;;;;;;10.43;2.27;;;9.10;99.90;;;;;;5049249;28;20459;-72
2024/01/25 12:12:07;;;;;;;8.67;1.43;;;9.10;99.90;;;;;;5049695;28;20429;-73
2024/01/25 12:14:32;;;;;;;4.70;1.67;;;9.30;99.90;;;;;;5053102;28;20182;-73
2024/01/25 12:16:58;;;;;;;7.50;1.30;;;9.60;99.90;;;;;;5052064;28;20636;-73
2024/01/25 12:19:23;;;;;;;11.20;2.17;;;9.60;99.90;;;;;;5048774;28;20209;-73
2024/01/25 12:21:49;;;;;;;6.77;1.87;;;9.70;99.90;;;;;;5055444;28;20208;-73
2024/01/25 12:24:14;;;;;;;6.60;1.37;;;10.00;99.90;;;;;;5059672;28;20182;-73
2024/01/25 12:26:41;;;;;;;4.60;1.17;;;10.10;99.90;;;;;;5063372;28;20522;-72
2024/01/25 12:29:08;;;;;;;8.07;1.77;;;10.20;99.90;;;;;;5051672;28;20186;-72
2024/01/25 12:31:34;;;;;;;2.47;1.20;;;10.20;99.90;;;;;;5062843;28;20428;-73
2024/01/25 12:34:00;;;;;;;5.60;1.50;;;10.10;99.90;;;;;;5059736;28;20458;-73
2024/01/25 12:36:26;;;;;;;6.30;1.23;;;9.80;99.90;;;;;;5066240;28;20459;-73
2024/01/25 12:38:51;;;;;;;3.87;1.20;;;9.60;99.90;;;;;;5057365;28;20474;-73
2024/01/25 12:41:17;;;;;;;5.53;1.00;;;9.50;99.90;;;;;;5068169;28;20212;-73
2024/01/25 12:43:43;;;;;;;4.87;2.07;;;9.40;99.90;;;;;;5051251;28;20216;-73
2024/01/25 12:46:08;;;;;;;7.17;1.57;;;9.60;99.90;;;;;;5064388;28;20186;-73